Portada
METAR-TAF:

METAR-TAF

Aeroports :

Wellington, Nova Zelanda

latitud: 41-20S, longitud: 174-48E, altitud: 12 m

Observació

L'informe es va fer fa 35 minuts, a les 07:30 UTC
Vent 17 kt del Nord amb ràfegues de 29 kt
Temperatura 12°C
Humitat 76%
Pressió 1012 hPa
Visibilitat 10 km o més

METAR: NZWN 190730Z AUTO 35017G29KT 9999 BKN031/// BKN038/// 12/08 Q1012 NOSIG

Hora: 20:05 (08:05 UTC)

Pronòstic

L'informe es va fer fa 3 hores i 1 minuts, a les 05:04 UTC
Pronòstic vàlid del 19 a les 06 UTC al 20 a les 06 UTC
Vent 20 kt del Nord amb ràfegues de 30 kt
Visibilitat 10 km o més
Cel ennuvolat a una alçada de 2500 ft
Temporalment
l' 19 a les 10 UTC al 19 a les 16 UTC
Visibilitat: 6000 m
Cel ennuvolat a una alçada de 1400 ft
pluja
A partir de les 19 a les 1600 UTC
Vent 15 kt del Nord/Nord-Oest
Visibilitat 10 km o més
Escasses núvols a una alçada de 3000 ft

TAF: NZWN 190504Z 1906/2006 35020G30KT 9999 BKN025 TEMPO 1910/1916 6000 RA BKN014 FM191600 34015KT 9999 FEW030

Observacions i pronòstics meteorològics de més de 4000 aeroports (METAR i TAF).

Les estacions disponibles són els punts grocs i vermells al mapa.

Posi el ratolí al punt desitjat per veure el nom de l'estació.

Feu clic per veure les observacions i els pronòstics meteorològics.

Per canviar el mapa: feu clic els botons verds amb una creu de color negre per apropar; al botó verd amb un guió per allunyar la imatge; o en les fletxes verdes per a mapes adjacents.


METAR-TAF: